MMCU/CUU METAR and TAF weather

Enter ICAO airport designator
Station Type Date Time Source
MMCU METAR 2024/06/16 03:40 UTC NOAA

MMCU 160340Z 11003KT 10SM FEW040 31/05 A2992 RMK 8/500 ISOL AC


Station Type Date Time Source
MMCU Decoded METAR 2024/06/16 03:40 UTC NOAA

Chihuahua International Airport, Mexico (MMCU) 28-42N 105-58W
Jun 15, 2024 - 11:40 PM EDT / 2024.06.16 0340 UTC
Wind: from the ESE (110 degrees) at 3 MPH (3 KT):0
Visibility: 10 mile(s):0
Sky conditions: mostly clear
Temperature: 87 F (31 C)
Dew Point: 41 F (5 C)
Relative Humidity: 19%
Pressure (altimeter): 29.92 in. Hg (1013 hPa)
ob: MMCU 160340Z 11003KT 10SM FEW040 31/05 A2992 RMK 8/500 ISOL AC
cycle: 3

Station Type Date Time Source
MMCU TAF 2024/06/16 06:35 UTC NOAA